createdAt,value
2019-05-03T00:01:02.436Z,59.90
2019-05-03T00:03:32.142Z,59.90
2019-05-03T00:06:03.586Z,60.00
2019-05-03T00:08:33.585Z,60.00
2019-05-03T00:11:03.330Z,60.10
2019-05-03T00:13:33.011Z,60.10
2019-05-03T00:16:12.113Z,60.10
2019-05-03T00:18:42.179Z,60.20
2019-05-03T00:21:12.117Z,60.10
2019-05-03T00:23:41.926Z,60.10
2019-05-03T00:26:12.100Z,60.00
2019-05-03T00:28:42.679Z,60.10
2019-05-03T00:31:12.583Z,60.10
2019-05-03T00:33:43.929Z,60.00
2019-05-03T00:36:18.152Z,60.90
2019-05-03T00:38:48.243Z,60.20
2019-05-03T00:41:17.918Z,60.20
2019-05-03T00:43:47.882Z,60.20
2019-05-03T00:46:17.597Z,60.00
2019-05-03T00:48:47.251Z,59.90
2019-05-03T00:51:16.904Z,59.90
2019-05-03T00:53:46.841Z,59.70
2019-05-03T00:56:16.499Z,59.50
2019-05-03T00:58:50.481Z,59.50
2019-05-03T01:01:20.122Z,59.50
2019-05-03T01:03:49.781Z,59.20
2019-05-03T01:06:19.884Z,59.00
2019-05-03T01:08:49.616Z,58.90
2019-05-03T01:11:19.586Z,58.90
2019-05-03T01:13:49.211Z,58.80
2019-05-03T01:16:22.579Z,58.70
2019-05-03T01:18:52.450Z,58.50
2019-05-03T01:21:22.706Z,58.40
2019-05-03T01:23:52.836Z,58.40
2019-05-03T01:26:22.886Z,57.90
2019-05-03T01:28:52.842Z,58.00
2019-05-03T01:31:23.071Z,57.60
2019-05-03T01:33:52.767Z,57.10
2019-05-03T01:36:23.084Z,57.30
2019-05-03T01:38:53.169Z,57.10
2019-05-03T01:41:23.093Z,56.80
2019-05-03T01:43:52.883Z,56.70
2019-05-03T01:46:23.009Z,56.80
2019-05-03T01:49:09.767Z,56.90
2019-05-03T01:51:46.657Z,57.10
2019-05-03T01:54:16.306Z,57.30
2019-05-03T01:56:56.100Z,57.60
2019-05-03T01:59:17.333Z,57.90
2019-05-03T02:01:52.848Z,58.10
2019-05-03T02:04:32.181Z,58.10
2019-05-03T02:07:02.350Z,58.20
2019-05-03T02:09:32.498Z,58.20
2019-05-03T02:12:02.254Z,58.20
2019-05-03T02:14:31.895Z,58.30
2019-05-03T02:17:01.915Z,58.20
2019-05-03T02:19:32.670Z,58.10
2019-05-03T02:22:02.926Z,58.10
2019-05-03T02:24:32.884Z,58.00
2019-05-03T02:27:02.596Z,58.00
2019-05-03T02:29:32.685Z,57.80
2019-05-03T02:32:03.278Z,57.80
2019-05-03T02:34:33.390Z,57.50
2019-05-03T02:37:03.397Z,57.50
2019-05-03T02:39:33.646Z,57.50
2019-05-03T02:42:10.865Z,57.50
2019-05-03T02:44:36.249Z,57.50
2019-05-03T02:47:22.353Z,57.40
2019-05-03T02:49:56.171Z,57.20
2019-05-03T02:52:36.427Z,57.20
2019-05-03T02:55:09.601Z,56.60
2019-05-03T02:57:39.256Z,57.10
2019-05-03T03:00:11.725Z,56.30
2019-05-03T03:02:42.061Z,56.40
2019-05-03T03:05:12.934Z,56.00
2019-05-03T03:07:46.981Z,55.50
2019-05-03T03:10:17.252Z,55.20
2019-05-03T03:12:51.357Z,54.50
2019-05-03T03:15:28.831Z,54.20
2019-05-03T03:18:01.860Z,54.10
2019-05-03T03:20:35.685Z,54.00
2019-05-03T03:23:07.070Z,54.00
2019-05-03T03:25:40.246Z,53.90
2019-05-03T03:28:36.124Z,54.00
2019-05-03T03:35:01.775Z,53.30
2019-05-03T03:37:19.639Z,53.10
2019-05-03T03:39:49.547Z,53.10
2019-05-03T03:42:21.838Z,53.20
2019-05-03T03:44:56.050Z,53.30
2019-05-03T03:47:27.848Z,53.40
2019-05-03T03:49:58.231Z,53.60
2019-05-03T03:52:32.248Z,54.10
2019-05-03T03:55:06.474Z,53.90
2019-05-03T03:57:36.854Z,54.10
2019-05-03T04:00:08.829Z,54.90
2019-05-03T04:02:39.874Z,54.60
2019-05-03T04:05:10.034Z,54.90
2019-05-03T04:07:40.414Z,55.10
2019-05-03T04:10:10.671Z,55.20
2019-05-03T04:12:45.284Z,55.40
2019-05-03T04:15:26.141Z,55.60
2019-05-03T04:18:00.235Z,55.60
2019-05-03T04:20:31.834Z,55.90
2019-05-03T04:23:01.612Z,55.80
2019-05-03T04:25:32.328Z,55.80
2019-05-03T04:28:02.042Z,55.80
2019-05-03T04:30:31.754Z,56.30
2019-05-03T04:33:01.418Z,55.30
2019-05-03T04:35:31.190Z,54.70
2019-05-03T04:38:00.853Z,54.50
2019-05-03T04:40:30.489Z,54.20
2019-05-03T04:43:00.211Z,54.20
2019-05-03T04:45:29.931Z,54.20
2019-05-03T04:47:59.700Z,53.80
2019-05-03T04:50:29.622Z,53.10
2019-05-03T04:52:59.279Z,52.90
2019-05-03T04:55:29.241Z,52.80
2019-05-03T04:57:58.919Z,52.40
2019-05-03T05:00:29.497Z,51.50
2019-05-03T05:02:59.144Z,51.40
2019-05-03T05:05:28.743Z,51.20
2019-05-03T05:07:58.340Z,50.10
2019-05-03T05:10:27.949Z,49.60
2019-05-03T05:12:57.647Z,49.30
2019-05-03T05:15:27.261Z,48.80
2019-05-03T05:18:06.093Z,48.70
2019-05-03T05:20:55.545Z,48.80
2019-05-03T05:23:25.291Z,48.10
2019-05-03T05:26:02.588Z,48.70
2019-05-03T05:28:45.627Z,48.70
2019-05-03T05:31:15.383Z,48.10
2019-05-03T05:33:45.239Z,48.80
2019-05-03T05:36:15.309Z,48.70
2019-05-03T05:38:45.210Z,48.90
2019-05-03T05:41:15.630Z,49.00
2019-05-03T05:43:45.363Z,49.00
2019-05-03T05:46:15.320Z,49.40
2019-05-03T05:48:49.725Z,49.30
2019-05-03T05:51:19.340Z,49.10
2019-05-03T05:53:48.941Z,49.40
2019-05-03T05:56:22.681Z,49.10
2019-05-03T05:58:55.381Z,48.20
2019-05-03T06:01:30.064Z,47.70
2019-05-03T06:04:00.908Z,47.50
2019-05-03T06:06:34.853Z,47.90
2019-05-03T06:09:26.672Z,46.80
2019-05-03T06:11:58.113Z,47.20
2019-05-03T06:14:31.062Z,47.00
2019-05-03T06:17:10.467Z,46.70
2019-05-03T06:19:42.156Z,47.80
2019-05-03T06:22:19.805Z,46.50
2019-05-03T06:24:51.329Z,46.20
2019-05-03T06:27:24.449Z,46.70
2019-05-03T06:29:55.995Z,46.70
2019-05-03T06:32:35.054Z,46.40
2019-05-03T06:35:06.579Z,46.20
2019-05-03T06:37:46.978Z,46.60
2019-05-03T06:40:17.600Z,46.80
2019-05-03T06:42:54.650Z,46.60
2019-05-03T06:45:18.823Z,46.70
2019-05-03T06:47:49.865Z,46.50
2019-05-03T06:50:27.535Z,45.60
2019-05-03T06:52:51.331Z,44.40
2019-05-03T06:55:21.031Z,44.10
2019-05-03T06:57:50.818Z,44.60
2019-05-03T07:00:25.274Z,44.40
2019-05-03T07:02:56.515Z,44.30
2019-05-03T07:05:35.447Z,44.60
2019-05-03T07:08:25.201Z,43.60
2019-05-03T07:10:57.973Z,44.20
2019-05-03T07:13:29.789Z,44.30
2019-05-03T07:16:00.810Z,44.50
2019-05-03T07:18:30.710Z,44.40
2019-05-03T07:21:00.522Z,44.80
2019-05-03T07:23:30.227Z,45.30
2019-05-03T07:25:59.840Z,44.80
2019-05-03T07:28:29.740Z,45.10
2019-05-03T07:30:59.646Z,45.50
2019-05-03T07:33:30.979Z,44.10
2019-05-03T07:36:00.576Z,44.30
2019-05-03T07:38:30.191Z,44.60
2019-05-03T07:40:59.901Z,44.80
2019-05-03T07:43:29.590Z,44.70
2019-05-03T07:46:00.142Z,44.70
2019-05-03T07:48:29.747Z,45.10
2019-05-03T07:50:59.342Z,45.00
2019-05-03T07:53:28.955Z,44.30
2019-05-03T07:56:09.449Z,44.90
2019-05-03T07:58:41.708Z,44.00
2019-05-03T08:01:20.093Z,44.10
2019-05-03T08:03:51.257Z,44.60
2019-05-03T08:06:21.943Z,44.30
2019-05-03T08:08:54.413Z,44.70
2019-05-03T08:11:24.903Z,44.40
2019-05-03T08:13:55.056Z,44.40
2019-05-03T08:16:25.308Z,44.60
2019-05-03T08:18:55.892Z,44.50
2019-05-03T08:21:25.737Z,45.10
2019-05-03T08:23:55.784Z,45.60
2019-05-03T08:26:25.876Z,45.80
2019-05-03T08:28:55.650Z,45.50
2019-05-03T08:31:29.759Z,45.10
2019-05-03T08:34:05.239Z,45.00
2019-05-03T08:36:54.362Z,45.00
2019-05-03T08:39:25.280Z,45.30
2019-05-03T08:42:04.623Z,45.10
2019-05-03T08:44:35.406Z,45.00
2019-05-03T08:47:05.370Z,45.20
2019-05-03T08:49:35.221Z,45.40
2019-05-03T08:52:05.594Z,45.40
2019-05-03T08:54:35.294Z,44.40
2019-05-03T08:57:06.271Z,44.30
2019-05-03T08:59:36.302Z,44.10
2019-05-03T09:02:13.892Z,44.30
2019-05-03T09:04:42.447Z,43.40
2019-05-03T09:07:09.196Z,42.90
2019-05-03T09:09:54.856Z,42.40
2019-05-03T09:12:25.199Z,41.90
2019-05-03T09:14:55.017Z,42.20
2019-05-03T09:17:24.881Z,42.20
2019-05-03T09:19:54.908Z,42.40
2019-05-03T09:22:25.536Z,41.70
2019-05-03T09:24:55.222Z,41.30
2019-05-03T09:27:25.034Z,41.10
2019-05-03T09:29:55.820Z,41.20
2019-05-03T09:32:25.740Z,40.90
2019-05-03T09:34:55.388Z,40.30
2019-05-03T09:37:25.152Z,40.30
2019-05-03T09:39:55.338Z,41.30
2019-05-03T09:42:25.009Z,41.10
2019-05-03T09:44:55.616Z,41.90
2019-05-03T09:47:25.481Z,42.50
2019-05-03T09:49:55.871Z,42.30
2019-05-03T09:52:25.670Z,41.30
2019-05-03T09:54:56.929Z,41.70
2019-05-03T09:57:26.533Z,40.90
2019-05-03T09:59:59.906Z,40.90
2019-05-03T10:02:27.833Z,40.80
2019-05-03T10:04:57.502Z,40.00
2019-05-03T10:07:27.268Z,39.20
2019-05-03T10:09:57.580Z,39.60
2019-05-03T10:12:27.138Z,39.60
2019-05-03T10:14:56.755Z,38.60
2019-05-03T10:17:35.277Z,39.10
2019-05-03T10:20:15.351Z,39.50
2019-05-03T10:22:44.988Z,39.10
2019-05-03T10:25:14.910Z,38.50
2019-05-03T10:27:47.280Z,38.80
2019-05-03T10:30:20.742Z,39.20
2019-05-03T10:32:54.491Z,39.20
2019-05-03T10:35:24.677Z,39.30
2019-05-03T10:37:54.847Z,39.00
2019-05-03T10:40:27.794Z,39.30
2019-05-03T10:42:57.575Z,39.10
2019-05-03T10:45:28.155Z,38.80
2019-05-03T10:47:57.864Z,39.10
2019-05-03T10:50:27.722Z,38.10
2019-05-03T10:53:05.221Z,38.50
2019-05-03T10:55:35.787Z,39.00
2019-05-03T10:58:07.098Z,38.80
2019-05-03T11:00:46.192Z,38.40
2019-05-03T11:03:09.776Z,38.40
2019-05-03T11:05:39.429Z,38.30
2019-05-03T11:08:09.112Z,38.40
2019-05-03T11:10:38.720Z,38.20
2019-05-03T11:13:08.371Z,37.80
2019-05-03T11:15:37.973Z,38.10
2019-05-03T11:18:07.733Z,38.40
2019-05-03T11:20:38.127Z,38.70
2019-05-03T11:23:08.927Z,38.70
2019-05-03T11:25:38.693Z,39.00
2019-05-03T11:28:10.083Z,38.70
2019-05-03T11:30:51.944Z,38.80
2019-05-03T11:33:28.343Z,38.80
2019-05-03T11:36:02.023Z,39.30
2019-05-03T11:38:35.000Z,39.70
2019-05-03T11:41:04.952Z,39.80
2019-05-03T11:43:35.111Z,40.30
2019-05-03T11:46:04.916Z,40.30
2019-05-03T11:48:34.930Z,40.40
2019-05-03T11:51:04.782Z,41.00
2019-05-03T11:53:35.639Z,40.90
2019-05-03T11:56:05.651Z,40.60
2019-05-03T11:58:35.305Z,40.50
2019-05-03T12:01:15.722Z,40.10
2019-05-03T12:03:45.151Z,40.10
2019-05-03T12:06:15.710Z,39.50
2019-05-03T12:08:45.500Z,39.70
2019-05-03T12:11:15.260Z,40.20
2019-05-03T12:13:45.654Z,39.40
2019-05-03T12:16:22.373Z,39.50
2019-05-03T12:18:53.438Z,39.50
2019-05-03T12:21:19.992Z,39.90
2019-05-03T12:23:50.343Z,40.10
2019-05-03T12:26:21.134Z,40.50
2019-05-03T12:28:51.152Z,40.80
2019-05-03T12:31:31.770Z,40.50
2019-05-03T12:33:52.063Z,40.20
2019-05-03T12:36:21.682Z,40.30
2019-05-03T12:38:51.269Z,40.70
2019-05-03T12:41:20.896Z,41.10
2019-05-03T12:43:50.515Z,41.40
2019-05-03T12:46:20.103Z,41.80
2019-05-03T12:48:49.731Z,42.00
2019-05-03T12:51:19.394Z,42.20
2019-05-03T12:53:49.138Z,42.40
2019-05-03T12:56:23.526Z,42.50
2019-05-03T12:58:55.176Z,42.60
2019-05-03T13:01:40.610Z,42.50
2019-05-03T13:04:00.484Z,42.60
2019-05-03T13:06:32.000Z,43.00
2019-05-03T13:09:01.611Z,43.20
2019-05-03T13:11:34.735Z,43.20
2019-05-03T13:14:04.748Z,43.40
2019-05-03T13:16:35.415Z,43.40
2019-05-03T13:19:05.677Z,42.90
2019-05-03T13:21:35.589Z,42.70
2019-05-03T13:24:05.590Z,42.80
2019-05-03T13:26:37.602Z,42.80
2019-05-03T13:29:07.202Z,42.90
2019-05-03T13:31:36.842Z,42.60
2019-05-03T13:34:06.513Z,42.60
2019-05-03T13:36:36.113Z,42.40
2019-05-03T13:39:13.918Z,42.50
2019-05-03T13:41:39.503Z,42.60
2019-05-03T13:44:09.378Z,42.20
2019-05-03T13:46:39.067Z,42.00
2019-05-03T13:49:08.898Z,41.00
2019-05-03T13:51:38.549Z,40.70
2019-05-03T13:54:08.143Z,40.70
2019-05-03T13:56:37.741Z,40.60
2019-05-03T13:59:18.557Z,40.70
2019-05-03T14:01:38.676Z,40.60
2019-05-03T14:04:09.446Z,40.30
2019-05-03T14:06:39.056Z,40.10
2019-05-03T14:09:09.073Z,40.20
2019-05-03T14:11:38.668Z,40.80
2019-05-03T14:14:08.353Z,39.90
2019-05-03T14:16:37.965Z,39.90
2019-05-03T14:19:09.241Z,39.70
2019-05-03T14:21:40.467Z,40.10
2019-05-03T14:24:10.731Z,40.60
2019-05-03T14:26:41.455Z,40.80
2019-05-03T14:29:11.468Z,40.70
2019-05-03T14:31:41.146Z,41.10
2019-05-03T14:34:10.856Z,41.20
2019-05-03T14:36:40.477Z,41.40
2019-05-03T14:39:10.580Z,41.50
2019-05-03T14:41:40.185Z,41.90
2019-05-03T14:44:09.806Z,40.80
2019-05-03T14:46:40.071Z,40.70
2019-05-03T14:49:09.675Z,41.10
2019-05-03T14:51:39.629Z,41.20
2019-05-03T14:54:10.246Z,41.00
2019-05-03T14:56:51.316Z,41.40
2019-05-03T14:59:38.127Z,41.50
2019-05-03T15:02:07.595Z,40.50
2019-05-03T15:04:37.672Z,40.30
2019-05-03T15:07:07.260Z,40.10
2019-05-03T15:09:36.884Z,39.20
2019-05-03T15:12:06.867Z,39.80
2019-05-03T15:14:36.735Z,40.20
2019-05-03T15:17:06.368Z,40.50
2019-05-03T15:19:35.977Z,40.50
2019-05-03T15:22:05.824Z,40.70
2019-05-03T15:24:35.483Z,41.10
2019-05-03T15:27:06.362Z,41.00
2019-05-03T15:29:36.247Z,41.30
2019-05-03T15:32:06.182Z,41.30
2019-05-03T15:34:37.801Z,41.40
2019-05-03T15:37:07.467Z,41.70
2019-05-03T15:39:39.900Z,42.00
2019-05-03T15:42:10.631Z,42.20
2019-05-03T15:44:58.438Z,42.40
2019-05-03T15:47:38.874Z,42.50
2019-05-03T15:50:09.927Z,42.50
2019-05-03T15:52:40.136Z,42.50
2019-05-03T15:55:11.473Z,42.60
2019-05-03T15:57:41.230Z,42.70
2019-05-03T16:00:15.010Z,42.90
2019-05-03T16:02:44.095Z,42.80
2019-05-03T16:05:15.560Z,42.80
2019-05-03T16:07:45.285Z,42.80
2019-05-03T16:10:15.470Z,42.80
2019-05-03T16:12:46.165Z,42.70
2019-05-03T16:15:16.361Z,42.60
2019-05-03T16:17:46.313Z,42.60
2019-05-03T16:20:16.205Z,42.90
2019-05-03T16:22:48.478Z,43.20
2019-05-03T16:25:19.652Z,43.20
2019-05-03T16:27:55.672Z,43.30
2019-05-03T16:30:39.284Z,43.50
2019-05-03T16:33:09.061Z,43.60
2019-05-03T16:35:44.395Z,43.90
2019-05-03T16:38:13.223Z,44.10
2019-05-03T16:40:45.081Z,44.20
2019-05-03T16:43:16.193Z,44.30
2019-05-03T16:45:47.827Z,44.30
2019-05-03T16:48:18.481Z,44.30
2019-05-03T16:50:48.301Z,44.50
2019-05-03T16:53:20.099Z,44.70
2019-05-03T16:55:49.993Z,45.00
2019-05-03T16:58:20.055Z,45.20
2019-05-03T17:00:49.978Z,45.30
2019-05-03T17:03:38.117Z,45.30
2019-05-03T17:06:18.303Z,45.30
2019-05-03T17:08:56.790Z,45.60
2019-05-03T17:11:29.253Z,46.10
2019-05-03T17:14:00.793Z,46.40
2019-05-03T17:16:30.483Z,46.80
2019-05-03T17:19:00.210Z,46.90
2019-05-03T17:21:30.295Z,47.10
2019-05-03T17:23:59.984Z,47.10
2019-05-03T17:26:30.386Z,47.30
2019-05-03T17:29:02.418Z,47.50
2019-05-03T17:31:32.471Z,47.60
2019-05-03T17:34:02.667Z,47.70
2019-05-03T17:36:34.442Z,48.00
2019-05-03T17:39:08.276Z,48.70
2019-05-03T17:41:42.261Z,49.20
2019-05-03T17:44:17.932Z,49.50
2019-05-03T17:46:50.000Z,49.70
2019-05-03T17:49:21.508Z,50.20
2019-05-03T17:51:56.043Z,50.10
2019-05-03T17:54:25.639Z,50.60
2019-05-03T17:57:12.084Z,50.70
2019-05-03T17:59:44.461Z,51.10
2019-05-03T18:02:29.398Z,51.20
2019-05-03T18:05:16.538Z,51.10
2019-05-03T18:08:03.961Z,51.20
2019-05-03T18:10:37.259Z,50.90
2019-05-03T18:13:09.604Z,51.30
2019-05-03T18:15:41.129Z,51.60
2019-05-03T18:18:11.323Z,52.10
2019-05-03T18:20:44.937Z,52.30
2019-05-03T18:23:15.376Z,52.80
2019-05-03T18:25:45.526Z,53.30
2019-05-03T18:28:17.086Z,53.30
2019-05-03T18:30:47.554Z,53.40
2019-05-03T18:33:19.695Z,54.10
2019-05-03T18:35:54.641Z,53.70
2019-05-03T18:38:25.343Z,54.10
2019-05-03T18:40:58.656Z,54.70
2019-05-03T18:43:30.356Z,55.20
2019-05-03T18:46:14.294Z,55.20
2019-05-03T18:48:45.794Z,56.40
2019-05-03T18:51:18.730Z,55.70
2019-05-03T18:53:47.622Z,55.80
2019-05-03T18:56:17.577Z,55.00
2019-05-03T18:58:47.196Z,55.60
2019-05-03T19:01:18.869Z,55.70
2019-05-03T19:03:50.179Z,56.10
2019-05-03T19:06:19.890Z,56.30
2019-05-03T19:08:49.331Z,56.50
2019-05-03T19:11:21.574Z,56.60
2019-05-03T19:13:52.915Z,57.50
2019-05-03T19:16:26.982Z,57.20
2019-05-03T19:18:56.634Z,57.40
2019-05-03T19:21:26.317Z,58.70
2019-05-03T19:23:55.912Z,58.70
2019-05-03T19:26:25.613Z,59.30
2019-05-03T19:28:55.210Z,59.60
2019-05-03T19:31:25.567Z,59.30
2019-05-03T19:33:55.174Z,59.80
2019-05-03T19:36:24.839Z,59.80
2019-05-03T19:38:54.724Z,60.50
2019-05-03T19:41:25.118Z,59.80
2019-05-03T19:43:55.179Z,60.00
2019-05-03T19:46:24.940Z,60.10
2019-05-03T19:48:54.794Z,60.20
2019-05-03T19:51:24.392Z,60.10
2019-05-03T19:53:55.400Z,60.00
2019-05-03T19:56:25.826Z,59.80
2019-05-03T19:58:57.459Z,59.80
2019-05-03T20:01:26.870Z,60.00
2019-05-03T20:03:58.115Z,61.80
2019-05-03T20:06:29.424Z,62.10
2019-05-03T20:09:00.737Z,62.60
2019-05-03T20:11:30.577Z,61.80
2019-05-03T20:14:00.521Z,61.90
2019-05-03T20:16:30.127Z,62.20
2019-05-03T20:18:59.736Z,61.90
2019-05-03T20:21:29.407Z,62.00
2019-05-03T20:23:58.993Z,61.80
2019-05-03T20:26:28.609Z,62.00
2019-05-03T20:28:58.226Z,61.80
2019-05-03T20:31:28.109Z,61.60
2019-05-03T20:33:58.635Z,62.00
2019-05-03T20:36:28.578Z,62.10
2019-05-03T20:38:58.178Z,62.20
2019-05-03T20:41:27.829Z,62.20
2019-05-03T20:44:05.221Z,62.10
2019-05-03T20:46:38.536Z,61.80
2019-05-03T20:49:09.877Z,61.80
2019-05-03T20:51:39.478Z,61.70
2019-05-03T20:54:09.082Z,61.70
2019-05-03T20:56:38.953Z,61.50
2019-05-03T20:59:08.911Z,61.50
2019-05-03T21:01:38.759Z,61.20
2019-05-03T21:04:08.362Z,61.20
2019-05-03T21:06:37.991Z,61.20
2019-05-03T21:09:08.497Z,61.20
2019-05-03T21:11:38.364Z,61.00
2019-05-03T21:14:07.978Z,61.10
2019-05-03T21:16:39.773Z,60.70
2019-05-03T21:19:13.338Z,60.30
2019-05-03T21:21:44.561Z,60.30
2019-05-03T21:24:13.873Z,60.10
2019-05-03T21:26:45.159Z,60.20
2019-05-03T21:29:15.182Z,60.30
2019-05-03T21:31:44.932Z,60.40
2019-05-03T21:34:14.848Z,60.20
2019-05-03T21:36:45.328Z,60.00
2019-05-03T21:39:15.080Z,60.00
2019-05-03T21:41:45.155Z,59.80
2019-05-03T21:44:31.065Z,59.80
2019-05-03T21:47:04.841Z,59.60
2019-05-03T21:49:41.537Z,59.50
2019-05-03T21:52:11.141Z,59.40
2019-05-03T21:54:40.734Z,60.00
2019-05-03T21:57:10.585Z,59.50
2019-05-03T21:59:40.264Z,59.40
2019-05-03T22:02:10.230Z,59.40
2019-05-03T22:04:39.915Z,59.60
2019-05-03T22:07:09.588Z,59.50
2019-05-03T22:09:39.309Z,59.40
2019-05-03T22:12:08.906Z,59.40
2019-05-03T22:14:40.457Z,59.50
2019-05-03T22:17:27.392Z,59.40
2019-05-03T22:19:58.627Z,59.60
2019-05-03T22:22:28.785Z,59.80
2019-05-03T22:25:00.141Z,59.60
2019-05-03T22:27:31.399Z,59.70
2019-05-03T22:30:00.986Z,59.80
2019-05-03T22:32:30.595Z,59.90
2019-05-03T22:35:00.217Z,60.10
2019-05-03T22:37:29.804Z,60.30
2019-05-03T22:39:59.391Z,60.50
2019-05-03T22:42:28.998Z,60.80
2019-05-03T22:44:58.596Z,61.00
2019-05-03T22:47:28.182Z,61.40
2019-05-03T22:49:57.805Z,61.50
2019-05-03T22:52:27.661Z,62.00
2019-05-03T22:54:57.260Z,62.10
2019-05-03T22:57:26.862Z,62.40
2019-05-03T22:59:56.456Z,62.50
2019-05-03T23:02:26.047Z,62.70
2019-05-03T23:04:55.658Z,63.30
2019-05-03T23:07:25.248Z,62.80
2019-05-03T23:09:54.852Z,62.60
2019-05-03T23:12:24.770Z,62.40
2019-05-03T23:14:55.094Z,62.60
2019-05-03T23:17:25.394Z,62.50
2019-05-03T23:19:56.731Z,62.40
2019-05-03T23:22:28.089Z,62.20
2019-05-03T23:24:57.688Z,62.10
2019-05-03T23:27:27.271Z,62.00
2019-05-03T23:29:56.880Z,61.80
2019-05-03T23:32:26.474Z,61.20
2019-05-03T23:34:56.326Z,60.80
2019-05-03T23:37:26.028Z,61.00
2019-05-03T23:39:55.619Z,59.00
2019-05-03T23:42:25.248Z,58.70
2019-05-03T23:44:54.922Z,58.60
2019-05-03T23:47:28.800Z,58.60
2019-05-03T23:49:58.643Z,58.60
2019-05-03T23:52:29.882Z,58.70
2019-05-03T23:55:01.394Z,59.00
2019-05-03T23:57:30.965Z,59.10
